createdAt,value
2023-03-18T00:00:38.227Z,101546.06
2023-03-18T00:03:18.591Z,101518.34
2023-03-18T00:05:51.679Z,101532.34
2023-03-18T00:08:20.164Z,101525.63
2023-03-18T00:10:53.625Z,101450.81
2023-03-18T00:13:28.417Z,101541.03
2023-03-18T00:16:09.326Z,101546.59
2023-03-18T00:18:50.158Z,101537.50
2023-03-18T00:21:23.233Z,101525.19
2023-03-18T00:26:50.048Z,101473.81
2023-03-18T00:29:19.764Z,101450.81
2023-03-18T00:31:50.469Z,101530.00
2023-03-18T00:34:17.869Z,101478.97
2023-03-18T00:36:56.899Z,101519.34
2023-03-18T00:42:21.988Z,101524.94
2023-03-18T00:44:50.574Z,101449.91
2023-03-18T00:47:19.297Z,101510.81
2023-03-18T00:49:45.893Z,101497.97
2023-03-18T00:52:33.595Z,101511.06
2023-03-18T00:55:09.226Z,101498.63
2023-03-18T00:57:42.051Z,101488.09
2023-03-18T01:00:16.334Z,101501.84
2023-03-18T01:02:44.291Z,101500.56
2023-03-18T01:05:21.525Z,101504.03
2023-03-18T01:07:48.195Z,101486.66
2023-03-18T01:10:18.432Z,101514.19
2023-03-18T01:12:50.932Z,101507.63
2023-03-18T01:15:19.252Z,101502.31
2023-03-18T01:17:54.608Z,101504.22
2023-03-18T01:20:21.335Z,101507.53
2023-03-18T01:22:48.228Z,101498.38
2023-03-18T01:25:24.668Z,101500.94
2023-03-18T01:27:58.756Z,101409.41
2023-03-18T01:30:27.867Z,101494.16
2023-03-18T01:32:56.093Z,101482.28
2023-03-18T01:35:30.353Z,101398.69
2023-03-18T01:38:12.236Z,101415.03
2023-03-18T01:40:47.338Z,101454.38
2023-03-18T01:43:20.860Z,101469.94
2023-03-18T01:46:02.126Z,101481.44
2023-03-18T01:48:39.833Z,101451.66
2023-03-18T01:51:11.697Z,101436.56
2023-03-18T01:53:44.197Z,101454.50
2023-03-18T01:56:12.107Z,101462.97
2023-03-18T01:58:58.424Z,101338.59
2023-03-18T02:01:48.811Z,101457.94
2023-03-18T02:04:19.387Z,101440.00
2023-03-18T02:07:05.348Z,101470.50
2023-03-18T02:09:32.122Z,101466.59
2023-03-18T02:12:07.275Z,101472.72
2023-03-18T02:14:37.712Z,101459.19
2023-03-18T02:17:19.445Z,101440.53
2023-03-18T02:20:34.096Z,101448.06
2023-03-18T02:23:17.253Z,101412.22
2023-03-18T02:25:55.797Z,101389.25
2023-03-18T02:28:29.061Z,101441.47
2023-03-18T02:30:59.379Z,101436.66
2023-03-18T02:33:43.283Z,101436.66
2023-03-18T02:36:32.109Z,101437.03
2023-03-18T02:39:00.532Z,101424.31
2023-03-18T02:41:34.231Z,101455.25
2023-03-18T02:44:01.177Z,101451.34
2023-03-18T02:47:01.907Z,101437.03
2023-03-18T02:49:33.036Z,101442.75
2023-03-18T02:52:16.796Z,101442.91
2023-03-18T02:54:47.214Z,101418.53
2023-03-18T02:57:14.032Z,101363.88
2023-03-18T02:59:40.933Z,101449.91
2023-03-18T03:02:07.840Z,101455.09
2023-03-18T03:04:34.673Z,101415.78
2023-03-18T03:07:04.434Z,101447.06
2023-03-18T03:09:34.686Z,101425.13
2023-03-18T03:12:02.519Z,101451.34
2023-03-18T03:14:33.236Z,101429.97
2023-03-18T03:17:05.641Z,101430.09
2023-03-18T03:19:34.326Z,101465.56
2023-03-18T03:22:14.113Z,101460.09
2023-03-18T03:24:40.755Z,101444.81
2023-03-18T03:27:20.110Z,101316.59
2023-03-18T03:29:47.257Z,101436.31
2023-03-18T03:32:17.681Z,101436.91
2023-03-18T03:34:49.338Z,101421.78
2023-03-18T03:37:34.355Z,101466.69
2023-03-18T03:40:32.973Z,101461.31
2023-03-18T03:43:10.542Z,101456.69
2023-03-18T03:45:37.791Z,101395.38
2023-03-18T03:48:39.244Z,101450.84
2023-03-18T03:51:11.818Z,101465.38
2023-03-18T03:53:58.962Z,101448.03
2023-03-18T03:56:39.870Z,101459.94
2023-03-18T03:59:07.668Z,101353.53
2023-03-18T04:01:34.772Z,101463.47
2023-03-18T04:04:03.104Z,101446.59
2023-03-18T04:06:31.124Z,101472.91
2023-03-18T04:09:03.469Z,101462.13
2023-03-18T04:11:33.539Z,101454.13
2023-03-18T04:14:02.738Z,101463.09
2023-03-18T04:16:29.346Z,101389.38
2023-03-18T04:18:59.208Z,101420.09
2023-03-18T04:21:28.882Z,101456.28
2023-03-18T04:24:04.993Z,101443.44
2023-03-18T04:26:43.867Z,101398.69
2023-03-18T04:29:11.527Z,101450.63
2023-03-18T04:31:39.185Z,101398.97
2023-03-18T04:34:13.155Z,101434.81
2023-03-18T04:36:42.433Z,101417.66
2023-03-18T04:39:12.475Z,101446.31
2023-03-18T04:41:39.831Z,101433.56
2023-03-18T04:44:08.152Z,101449.41
2023-03-18T04:46:39.779Z,101451.50
2023-03-18T04:49:06.435Z,101454.22
2023-03-18T04:51:58.218Z,101429.91
2023-03-18T04:54:31.015Z,101450.19
2023-03-18T04:56:57.691Z,101457.72
2023-03-18T04:59:38.084Z,101439.59
2023-03-18T05:02:05.241Z,101462.22
2023-03-18T05:04:32.446Z,101395.66
2023-03-18T05:09:49.390Z,101378.41
2023-03-18T05:12:16.490Z,101359.19
2023-03-18T05:14:43.647Z,101438.00
2023-03-18T05:17:17.867Z,101411.78
2023-03-18T05:19:49.911Z,101423.50
2023-03-18T05:22:20.342Z,101437.81
2023-03-18T05:24:47.133Z,101438.94
2023-03-18T05:27:15.853Z,101379.94
2023-03-18T05:29:51.798Z,101371.47
2023-03-18T05:32:41.673Z,101429.72
2023-03-18T05:35:16.637Z,101420.03
2023-03-18T05:37:50.986Z,101448.41
2023-03-18T05:40:17.952Z,101444.09
2023-03-18T05:42:55.971Z,101430.47
2023-03-18T05:45:25.077Z,101434.81
2023-03-18T05:48:12.760Z,101454.78
2023-03-18T05:50:49.590Z,101437.78
2023-03-18T05:53:37.910Z,101434.84
2023-03-18T05:56:15.085Z,101410.00
2023-03-18T05:58:49.324Z,101387.44
2023-03-18T06:01:25.190Z,101424.69
2023-03-18T06:03:53.752Z,101450.03
2023-03-18T06:06:24.258Z,101419.31
2023-03-18T06:08:55.438Z,101410.63
2023-03-18T06:11:28.315Z,101443.97
2023-03-18T06:13:56.066Z,101396.28
2023-03-18T06:16:23.566Z,101448.47
2023-03-18T06:18:52.012Z,101430.25
2023-03-18T06:21:22.925Z,101416.22
2023-03-18T06:23:53.285Z,101440.09
2023-03-18T06:26:29.791Z,101386.28
2023-03-18T06:28:58.590Z,101445.13
2023-03-18T06:31:26.489Z,101444.94
2023-03-18T06:34:07.527Z,101207.03
2023-03-18T06:36:38.338Z,101460.50
2023-03-18T06:39:08.629Z,101425.31
2023-03-18T06:41:38.015Z,101472.03
2023-03-18T06:44:09.720Z,101480.09
2023-03-18T06:46:45.169Z,101392.59
2023-03-18T06:49:21.546Z,101390.50
2023-03-18T06:51:51.130Z,101462.84
2023-03-18T06:54:27.058Z,101433.19
2023-03-18T06:56:54.154Z,101453.66
2023-03-18T06:59:23.370Z,101477.72
2023-03-18T07:02:08.426Z,101461.84
2023-03-18T07:04:37.671Z,101474.25
2023-03-18T07:07:06.012Z,101426.88
2023-03-18T07:09:33.470Z,101470.94
2023-03-18T07:12:00.996Z,101415.00
2023-03-18T07:14:28.545Z,101470.50
2023-03-18T07:17:04.118Z,101436.78
2023-03-18T07:19:42.844Z,101460.09
2023-03-18T07:22:13.428Z,101463.88
2023-03-18T07:24:42.844Z,101472.94
2023-03-18T07:27:15.298Z,101462.56
2023-03-18T07:29:42.135Z,101398.78
2023-03-18T07:32:21.354Z,101465.84
2023-03-18T07:35:00.126Z,101478.16
2023-03-18T07:37:27.529Z,101425.53
2023-03-18T07:39:54.539Z,101486.94
2023-03-18T07:42:21.620Z,101487.84
2023-03-18T07:45:08.720Z,101480.09
2023-03-18T07:47:38.150Z,101490.72
2023-03-18T07:50:16.407Z,101468.09
2023-03-18T07:52:43.576Z,101462.38
2023-03-18T07:55:20.911Z,101477.16
2023-03-18T07:57:56.767Z,101497.38
2023-03-18T08:00:24.225Z,101496.63
2023-03-18T08:02:50.945Z,101488.25
2023-03-18T08:05:24.614Z,101507.88
2023-03-18T08:08:05.543Z,101501.75
2023-03-18T08:10:32.239Z,101506.72
2023-03-18T08:13:04.879Z,101472.44
2023-03-18T08:15:36.639Z,101505.56
2023-03-18T08:18:11.526Z,101520.78
2023-03-18T08:20:38.413Z,101490.63
2023-03-18T08:23:05.996Z,101507.41
2023-03-18T08:25:32.963Z,101512.38
2023-03-18T08:28:07.517Z,101525.91
2023-03-18T08:30:35.715Z,101523.50
2023-03-18T08:33:04.304Z,101520.38
2023-03-18T08:35:31.388Z,101504.28
2023-03-18T08:38:01.426Z,101508.75
2023-03-18T08:40:28.468Z,101512.25
2023-03-18T08:42:55.420Z,101529.44
2023-03-18T08:45:22.721Z,101529.53
2023-03-18T08:47:56.473Z,101528.09
2023-03-18T08:50:33.324Z,101483.31
2023-03-18T08:53:03.189Z,101503.41
2023-03-18T08:55:37.354Z,101521.06
2023-03-18T08:58:11.136Z,101517.94
2023-03-18T09:00:49.009Z,101527.59
2023-03-18T09:03:20.283Z,101520.59
2023-03-18T09:05:55.793Z,101528.34
2023-03-18T09:08:31.171Z,101464.31
2023-03-18T09:11:00.930Z,101526.19
2023-03-18T09:13:36.891Z,101475.41
2023-03-18T09:16:05.288Z,101528.72
2023-03-18T09:18:35.366Z,101501.03
2023-03-18T09:21:12.055Z,101522.06
2023-03-18T09:23:40.148Z,101449.06
2023-03-18T09:26:06.826Z,101524.75
2023-03-18T09:28:42.326Z,101525.22
2023-03-18T09:31:18.121Z,101388.88
2023-03-18T09:33:48.471Z,101510.19
2023-03-18T09:36:15.854Z,101514.44
2023-03-18T09:38:45.196Z,101517.66
2023-03-18T09:41:50.760Z,101527.44
2023-03-18T09:44:35.645Z,101526.38
2023-03-18T09:47:12.448Z,101532.72
2023-03-18T09:49:59.412Z,101523.31
2023-03-18T09:52:36.481Z,101530.63
2023-03-18T09:55:22.503Z,101521.13
2023-03-18T09:58:02.882Z,101507.94
2023-03-18T10:00:46.690Z,101519.81
2023-03-18T10:03:37.535Z,101510.13
2023-03-18T10:06:22.323Z,101497.28
2023-03-18T10:09:13.386Z,101531.72
2023-03-18T10:11:46.346Z,101511.47
2023-03-18T10:15:08.421Z,101475.91
2023-03-18T10:17:56.124Z,101457.91
2023-03-18T10:20:51.916Z,101455.41
2023-03-18T10:23:49.101Z,101513.75
2023-03-18T10:26:30.774Z,101431.25
2023-03-18T10:29:06.794Z,101505.41
2023-03-18T10:32:17.368Z,101476.66
2023-03-18T10:37:58.932Z,101498.75
2023-03-18T10:40:41.381Z,101448.19
2023-03-18T10:43:35.141Z,101464.25
2023-03-18T10:46:07.699Z,101494.19
2023-03-18T10:48:53.671Z,101488.44
2023-03-18T10:51:46.570Z,101481.44
2023-03-18T10:54:26.385Z,101496.69
2023-03-18T10:56:55.857Z,101482.72
2023-03-18T10:59:27.249Z,101486.59
2023-03-18T11:02:14.262Z,101483.97
2023-03-18T11:05:07.304Z,101474.34
2023-03-18T11:07:58.001Z,101469.53
2023-03-18T11:10:45.966Z,101392.28
2023-03-18T11:13:28.926Z,101476.28
2023-03-18T11:16:02.552Z,101416.22
2023-03-18T11:18:40.518Z,101466.91
2023-03-18T11:21:14.264Z,101462.88
2023-03-18T11:24:17.814Z,101457.09
2023-03-18T11:26:54.861Z,101407.38
2023-03-18T11:29:35.344Z,101469.50
2023-03-18T11:32:10.422Z,101468.13
2023-03-18T11:35:21.713Z,101462.50
2023-03-18T11:37:48.612Z,101467.53
2023-03-18T11:40:18.868Z,101406.97
2023-03-18T11:42:56.835Z,101448.50
2023-03-18T11:45:26.386Z,101454.66
2023-03-18T11:47:59.203Z,101392.75
2023-03-18T11:50:38.125Z,101444.81
2023-03-18T11:53:17.644Z,101453.22
2023-03-18T11:56:03.702Z,101451.06
2023-03-18T11:58:44.966Z,101438.97
2023-03-18T12:02:08.672Z,101455.44
2023-03-18T12:04:41.256Z,101466.66
2023-03-18T12:07:32.703Z,101364.97
2023-03-18T12:10:36.761Z,101374.47
2023-03-18T12:13:41.459Z,101416.69
2023-03-18T12:16:35.117Z,101426.94
2023-03-18T12:19:17.643Z,101426.25
2023-03-18T12:22:18.184Z,101341.97
2023-03-18T12:25:06.204Z,101415.00
2023-03-18T12:27:41.839Z,101408.88
2023-03-18T12:30:37.037Z,101405.78
2023-03-18T12:33:19.188Z,101401.03
2023-03-18T12:36:23.817Z,101390.88
2023-03-18T12:39:20.998Z,101393.34
2023-03-18T12:42:10.951Z,101392.66
2023-03-18T12:45:04.740Z,101331.53
2023-03-18T12:48:08.781Z,101329.09
2023-03-18T12:50:59.985Z,101369.09
2023-03-18T12:53:35.465Z,101377.75
2023-03-18T12:56:26.476Z,101311.75
2023-03-18T12:59:22.540Z,101283.44
2023-03-18T13:02:18.271Z,101263.50
2023-03-18T13:04:59.746Z,101338.91
2023-03-18T13:08:20.585Z,101315.91
2023-03-18T13:11:12.432Z,101369.75
2023-03-18T13:13:53.508Z,101359.31
2023-03-18T13:16:23.711Z,101359.22
2023-03-18T13:19:03.482Z,101368.72
2023-03-18T13:21:35.435Z,101331.06
2023-03-18T13:24:40.021Z,101325.75
2023-03-18T13:27:26.816Z,101367.63
2023-03-18T13:31:11.282Z,101364.09
2023-03-18T13:33:55.719Z,101314.03
2023-03-18T13:36:48.593Z,101282.00
2023-03-18T13:39:25.353Z,101346.28
2023-03-18T13:42:23.501Z,101297.00
2023-03-18T13:45:10.246Z,101342.88
2023-03-18T13:47:40.085Z,101343.56
2023-03-18T13:50:20.746Z,101284.03
2023-03-18T13:52:55.600Z,101324.94
2023-03-18T13:55:27.959Z,101265.22
2023-03-18T13:58:23.039Z,101321.69
2023-03-18T14:00:56.248Z,101316.47
2023-03-18T14:03:42.869Z,101322.44
2023-03-18T14:06:28.624Z,101253.09
2023-03-18T14:08:57.886Z,101310.72
2023-03-18T14:11:30.256Z,101184.41
2023-03-18T14:14:31.512Z,101283.41
2023-03-18T14:16:58.292Z,101294.03
2023-03-18T14:19:40.673Z,101275.22
2023-03-18T14:22:35.450Z,101264.03
2023-03-18T14:25:41.045Z,101278.78
2023-03-18T14:28:07.690Z,101290.16
2023-03-18T14:30:39.706Z,101292.84
2023-03-18T14:33:30.315Z,101241.78
2023-03-18T14:36:10.573Z,101289.53
2023-03-18T14:39:10.030Z,101290.41
2023-03-18T14:41:45.385Z,101285.31
2023-03-18T14:44:51.334Z,101293.25
2023-03-18T14:47:40.732Z,101230.88
2023-03-18T14:50:36.263Z,101296.22
2023-03-18T14:53:47.486Z,101298.50
2023-03-18T14:56:35.425Z,101250.88
2023-03-18T14:59:11.990Z,101285.03
2023-03-18T15:01:41.193Z,101295.63
2023-03-18T15:04:18.139Z,101289.25
2023-03-18T15:07:08.794Z,101274.41
2023-03-18T15:09:59.905Z,101278.78
2023-03-18T15:12:28.393Z,101219.34
2023-03-18T15:14:58.169Z,101286.31
2023-03-18T15:17:27.709Z,101285.94
2023-03-18T15:20:09.109Z,101290.97
2023-03-18T15:22:39.359Z,101275.50
2023-03-18T15:25:15.271Z,101241.81
2023-03-18T15:27:54.695Z,101237.41
2023-03-18T15:30:40.608Z,101257.22
2023-03-18T15:33:20.586Z,101265.88
2023-03-18T15:35:57.504Z,101292.75
2023-03-18T15:38:37.369Z,101236.66
2023-03-18T15:41:09.679Z,101290.66
2023-03-18T15:43:54.533Z,101290.53
2023-03-18T15:49:12.396Z,101223.53
2023-03-18T15:52:00.809Z,101268.44
2023-03-18T15:54:55.600Z,101261.69
2023-03-18T15:57:47.172Z,101264.22
2023-03-18T16:00:14.648Z,101254.94
2023-03-18T16:02:41.938Z,101273.63
2023-03-18T16:05:27.026Z,101280.78
2023-03-18T16:08:10.125Z,101278.44
2023-03-18T16:10:44.820Z,101205.59
2023-03-18T16:13:22.178Z,101283.34
2023-03-18T16:15:49.290Z,101203.94
2023-03-18T16:18:18.279Z,101290.41
2023-03-18T16:20:46.719Z,101203.47
2023-03-18T16:23:20.534Z,101294.34
2023-03-18T16:25:56.966Z,101289.06
2023-03-18T16:28:30.507Z,101300.84
2023-03-18T16:30:57.806Z,101274.84
2023-03-18T16:33:42.433Z,101245.63
2023-03-18T16:36:39.013Z,101272.50
2023-03-18T16:39:33.954Z,101302.75
2023-03-18T16:42:10.713Z,101305.09
2023-03-18T16:44:47.486Z,101313.75
2023-03-18T16:47:32.999Z,101311.41
2023-03-18T16:50:02.876Z,101323.06
2023-03-18T16:52:33.479Z,101310.44
2023-03-18T16:55:03.330Z,101330.56
2023-03-18T16:57:30.720Z,101325.19
2023-03-18T17:02:55.801Z,101331.59
2023-03-18T17:05:24.685Z,101338.00
2023-03-18T17:08:10.784Z,101350.00
2023-03-18T17:10:38.549Z,101346.50
2023-03-18T17:13:16.406Z,101356.91
2023-03-18T17:15:53.085Z,101345.66
2023-03-18T17:18:23.671Z,101229.97
2023-03-18T17:21:00.682Z,101329.94
2023-03-18T17:26:40.222Z,101347.34
2023-03-18T17:29:09.713Z,101357.34
2023-03-18T17:31:39.494Z,101351.88
2023-03-18T17:34:19.611Z,101301.22
2023-03-18T17:36:53.516Z,101338.44
2023-03-18T17:39:29.658Z,101290.53
2023-03-18T17:42:03.837Z,101346.59
2023-03-18T17:44:33.749Z,101366.13
2023-03-18T17:47:28.093Z,101271.03
2023-03-18T17:50:08.406Z,101318.25
2023-03-18T17:53:08.246Z,101363.03
2023-03-18T17:55:35.251Z,101372.16
2023-03-18T17:58:04.665Z,101352.94
2023-03-18T18:00:34.098Z,101361.53
2023-03-18T18:03:04.499Z,101366.56
2023-03-18T18:05:32.304Z,101375.00
2023-03-18T18:08:10.004Z,101386.53
2023-03-18T18:10:36.782Z,101389.47
2023-03-18T18:13:06.231Z,101356.19
2023-03-18T18:18:29.234Z,101384.44
2023-03-18T18:21:16.423Z,101397.47
2023-03-18T18:23:53.118Z,101380.63
2023-03-18T18:26:27.611Z,101408.31
2023-03-18T18:28:54.711Z,101401.72
2023-03-18T18:31:37.330Z,101410.84
2023-03-18T18:34:03.925Z,101417.69
2023-03-18T18:36:32.485Z,101436.00
2023-03-18T18:39:00.159Z,101416.88
2023-03-18T18:41:27.539Z,101427.72
2023-03-18T18:43:57.465Z,101432.22
2023-03-18T18:46:27.784Z,101297.44
2023-03-18T18:48:55.585Z,101361.09
2023-03-18T18:51:30.537Z,101410.41
2023-03-18T18:54:11.788Z,101412.25
2023-03-18T18:56:47.986Z,101425.88
2023-03-18T18:59:25.768Z,101374.16
2023-03-18T19:02:00.101Z,101402.94
2023-03-18T19:04:31.430Z,101381.97
2023-03-18T19:07:07.111Z,101404.88
2023-03-18T19:09:43.066Z,101432.28
2023-03-18T19:12:24.389Z,101428.03
2023-03-18T19:14:51.594Z,101405.91
2023-03-18T19:17:24.593Z,101408.19
2023-03-18T19:19:54.811Z,101363.88
2023-03-18T19:22:22.252Z,101369.28
2023-03-18T19:24:59.765Z,101418.47
2023-03-18T19:27:33.549Z,101387.09
2023-03-18T19:30:33.050Z,101429.44
2023-03-18T19:33:24.001Z,101411.03
2023-03-18T19:35:57.008Z,101405.13
2023-03-18T19:38:23.816Z,101421.81
2023-03-18T19:40:55.283Z,101414.50
2023-03-18T19:43:24.523Z,101364.31
2023-03-18T19:46:03.152Z,101429.69
2023-03-18T19:48:39.265Z,101411.38
2023-03-18T19:51:08.250Z,101422.88
2023-03-18T19:53:42.414Z,101375.59
2023-03-18T19:59:37.945Z,101389.25
2023-03-18T20:02:39.074Z,101404.50
2023-03-18T20:05:22.389Z,101335.28
2023-03-18T20:07:57.204Z,101393.28
2023-03-18T20:10:38.115Z,101432.53
2023-03-18T20:13:18.536Z,101215.50
2023-03-18T20:15:53.727Z,101422.94
2023-03-18T20:18:27.972Z,101433.97
2023-03-18T20:20:57.794Z,101428.81
2023-03-18T20:23:33.527Z,101424.91
2023-03-18T20:26:10.968Z,101330.81
2023-03-18T20:28:44.078Z,101441.88
2023-03-18T20:31:21.055Z,101306.75
2023-03-18T20:33:49.184Z,101437.31
2023-03-18T20:36:17.938Z,101436.97
2023-03-18T20:39:06.741Z,101438.06
2023-03-18T20:41:38.225Z,101444.50
2023-03-18T20:44:15.723Z,101449.69
2023-03-18T20:46:43.311Z,101467.78
2023-03-18T20:49:14.723Z,101438.72
2023-03-18T20:51:45.056Z,101443.75
2023-03-18T20:54:35.469Z,101452.38
2023-03-18T20:57:07.117Z,101420.28
2023-03-18T20:59:44.694Z,101368.81
2023-03-18T21:02:38.244Z,101467.38
2023-03-18T21:05:10.593Z,101468.22
2023-03-18T21:07:41.113Z,101425.13
2023-03-18T21:10:25.939Z,101419.91
2023-03-18T21:13:11.459Z,101457.50
2023-03-18T21:15:57.394Z,101351.91
2023-03-18T21:18:45.066Z,101333.09
2023-03-18T21:21:31.622Z,101457.06
2023-03-18T21:24:15.607Z,101443.31
2023-03-18T21:27:05.419Z,101413.72
2023-03-18T21:29:54.857Z,101437.69
2023-03-18T21:32:46.155Z,101457.53
2023-03-18T21:35:31.851Z,101450.44
2023-03-18T21:38:02.473Z,101465.53
2023-03-18T21:40:35.496Z,101453.22
2023-03-18T21:43:31.221Z,101413.88
2023-03-18T21:46:19.060Z,101390.81
2023-03-18T21:49:03.549Z,101428.47
2023-03-18T21:51:44.170Z,101394.91
2023-03-18T21:54:27.272Z,101432.25
2023-03-18T21:57:06.670Z,101448.16
2023-03-18T21:59:36.635Z,101399.06
2023-03-18T22:02:11.600Z,101429.84
2023-03-18T22:04:48.161Z,101414.47
2023-03-18T22:07:18.697Z,101402.59
2023-03-18T22:10:03.614Z,101428.97
2023-03-18T22:12:36.063Z,101453.16
2023-03-18T22:15:34.375Z,101449.53
2023-03-18T22:18:11.516Z,101457.16
2023-03-18T22:20:51.966Z,101452.31
2023-03-18T22:23:32.739Z,101421.28
2023-03-18T22:25:59.799Z,101413.78
2023-03-18T22:28:39.110Z,101435.88
2023-03-18T22:31:24.815Z,101442.16
2023-03-18T22:33:59.234Z,101425.28
2023-03-18T22:36:37.222Z,101455.34
2023-03-18T22:39:17.761Z,101471.91
2023-03-18T22:41:57.444Z,101466.59
2023-03-18T22:44:30.618Z,101480.97
2023-03-18T22:47:06.156Z,101458.72
2023-03-18T22:49:41.118Z,101461.16
2023-03-18T22:52:46.180Z,101449.56
2023-03-18T22:55:24.201Z,101461.78
2023-03-18T22:58:11.097Z,101441.34
2023-03-18T23:03:36.778Z,101418.38
2023-03-18T23:06:05.186Z,101450.78
2023-03-18T23:08:35.098Z,101449.31
2023-03-18T23:11:19.465Z,101452.44
2023-03-18T23:14:01.771Z,101430.69
2023-03-18T23:16:46.560Z,101475.03
2023-03-18T23:19:19.473Z,101467.31
2023-03-18T23:21:59.439Z,101407.88
2023-03-18T23:24:29.938Z,101465.63
2023-03-18T23:27:09.484Z,101465.75
2023-03-18T23:32:45.459Z,101460.91
2023-03-18T23:35:16.412Z,101466.22
2023-03-18T23:37:44.200Z,101455.00
2023-03-18T23:40:20.997Z,101450.53
2023-03-18T23:42:48.181Z,101474.56
2023-03-18T23:45:19.048Z,101435.03
2023-03-18T23:47:54.681Z,101486.41
2023-03-18T23:50:32.839Z,101463.03
2023-03-18T23:53:07.629Z,101485.38
2023-03-18T23:55:35.489Z,101480.56
2023-03-18T23:58:10.136Z,101467.84
